Terminal Aerodrome Forecast
Issued by NWS Billings, MT

Home | Current Version | Previous Version | Text Only | Print | Product List | Glossary Off
Versions: 1 2 3 4 5 6 7 8 9 10 11 12 13 14 15 16 17 18 19 20 21 22 23 24 25 26

000
FTUS45 KBYZ 260159 AAA
TAFMLS
TAF AMD
KMLS 260159Z 2602/2624 33010KT P6SM SKC
     FM261500 31014KT P6SM FEW050
     FM262000 32016G31KT P6SM FEW050=

USA.gov is the U.S. government's official web portal to all federal, state and local government web resources and services.